createdAt,value
2022-11-08T00:04:57.626Z,98239.47
2022-11-08T00:10:18.183Z,98234.03
2022-11-08T00:15:19.968Z,98243.00
2022-11-08T00:20:21.736Z,98231.72
2022-11-08T00:25:23.532Z,98244.19
2022-11-08T00:30:25.308Z,98235.69
2022-11-08T00:35:27.085Z,98235.69
2022-11-08T00:40:28.863Z,98240.72
2022-11-08T00:45:30.666Z,98248.88
2022-11-08T00:50:32.514Z,98231.72
2022-11-08T00:55:34.295Z,98232.16
2022-11-08T01:00:36.208Z,98229.38
2022-11-08T01:05:38.401Z,98224.75
2022-11-08T01:10:45.659Z,98234.91
2022-11-08T01:15:48.425Z,98218.94
2022-11-08T01:20:50.896Z,98206.09
2022-11-08T01:25:52.706Z,98203.75
2022-11-08T01:30:54.484Z,98198.28
2022-11-08T01:35:56.343Z,98196.75
2022-11-08T01:40:58.132Z,98199.00
2022-11-08T01:46:18.376Z,98188.09
2022-11-08T01:51:26.082Z,98187.34
2022-11-08T01:56:28.036Z,98180.31
2022-11-08T02:01:30.127Z,98174.81
2022-11-08T02:06:35.888Z,98166.69
2022-11-08T02:11:39.512Z,98167.84
2022-11-08T02:16:41.302Z,98167.44
2022-11-08T02:21:50.805Z,98167.06
2022-11-08T02:26:55.282Z,98164.34
2022-11-08T02:31:58.768Z,98158.94
2022-11-08T02:37:03.627Z,98155.47
2022-11-08T02:42:05.576Z,98159.38
2022-11-08T02:47:07.387Z,98150.03
2022-11-08T02:52:09.502Z,98152.75
2022-11-08T02:57:11.332Z,98143.75
2022-11-08T03:02:13.232Z,98148.41
2022-11-08T03:07:15.220Z,98153.03
2022-11-08T03:12:17.044Z,98156.06
2022-11-08T03:17:18.837Z,98172.41
2022-11-08T03:22:20.638Z,98154.94
2022-11-08T03:27:23.382Z,98163.09
2022-11-08T03:32:25.129Z,98165.72
2022-11-08T03:37:26.913Z,98168.03
2022-11-08T03:42:28.689Z,98168.78
2022-11-08T03:47:30.459Z,98175.38
2022-11-08T03:52:32.199Z,98164.47
2022-11-08T03:57:34.173Z,98173.31
2022-11-08T04:02:35.972Z,98173.59
2022-11-08T04:07:38.338Z,98173.66
2022-11-08T04:12:59.934Z,98169.03
2022-11-08T04:18:21.016Z,98164.78
2022-11-08T04:23:23.097Z,98169.84
2022-11-08T04:28:26.978Z,98166.34
2022-11-08T04:33:28.983Z,98157.00
2022-11-08T04:38:31.926Z,98152.75
2022-11-08T04:43:33.913Z,98153.59
2022-11-08T04:48:36.350Z,98148.16
2022-11-08T04:53:38.135Z,98153.59
2022-11-08T04:58:45.435Z,98154.75
2022-11-08T05:03:49.283Z,98161.41
2022-11-08T05:08:51.512Z,98159.03
2022-11-08T05:13:53.840Z,98166.03
2022-11-08T05:18:56.186Z,98166.81
2022-11-08T05:23:59.094Z,98166.03
2022-11-08T05:29:00.898Z,98165.19
2022-11-08T05:34:02.740Z,98171.38
2022-11-08T05:39:04.586Z,98174.47
2022-11-08T05:44:06.406Z,98173.66
2022-11-08T05:49:08.201Z,98184.47
2022-11-08T05:54:10.282Z,98182.06
2022-11-08T05:59:12.055Z,98182.81
2022-11-08T06:04:13.921Z,98181.25
2022-11-08T06:09:15.699Z,98187.78
2022-11-08T06:14:17.463Z,98188.22
2022-11-08T06:19:19.262Z,98187.88
2022-11-08T06:24:21.065Z,98175.13
2022-11-08T06:29:22.870Z,98190.81
2022-11-08T06:34:25.227Z,98186.94
2022-11-08T06:39:27.130Z,98190.38
2022-11-08T06:44:28.955Z,98178.41
2022-11-08T06:49:30.741Z,98191.78
2022-11-08T06:54:32.547Z,98183.31
2022-11-08T06:59:34.334Z,98175.69
2022-11-08T07:04:36.138Z,98173.84
2022-11-08T07:09:37.934Z,98174.53
2022-11-08T07:14:39.716Z,98179.63
2022-11-08T07:19:41.617Z,98177.34
2022-11-08T07:24:43.408Z,98175.13
2022-11-08T07:29:45.219Z,98181.44
2022-11-08T07:34:47.118Z,98174.09
2022-11-08T07:39:48.910Z,98172.28
2022-11-08T07:44:50.907Z,98175.88
2022-11-08T07:49:52.701Z,98170.84
2022-11-08T07:54:54.721Z,98167.00
2022-11-08T07:59:56.526Z,98166.97
2022-11-08T08:04:58.332Z,98172.47
2022-11-08T08:10:00.242Z,98170.09
2022-11-08T08:15:02.172Z,98165.34
2022-11-08T08:20:04.745Z,98159.81
2022-11-08T08:25:07.189Z,98151.13
2022-11-08T08:30:09.313Z,98149.09
2022-11-08T08:35:11.623Z,98144.69
2022-11-08T08:40:13.509Z,98147.34
2022-11-08T08:45:15.429Z,98157.09
2022-11-08T08:50:17.272Z,98149.97
2022-11-08T08:55:19.517Z,98146.66
2022-11-08T09:05:47.018Z,98153.50
2022-11-08T09:10:57.305Z,98140.38
2022-11-08T09:16:01.884Z,98144.56
2022-11-08T09:21:04.473Z,98144.44
2022-11-08T09:26:06.622Z,98143.53
2022-11-08T09:31:10.913Z,98139.50
2022-11-08T09:36:14.141Z,98138.63
2022-11-08T09:41:41.589Z,98129.59
2022-11-08T09:46:53.678Z,98123.56
2022-11-08T09:51:55.692Z,98118.66
2022-11-08T09:56:58.373Z,98117.00
2022-11-08T10:02:00.327Z,98127.47
2022-11-08T10:07:08.019Z,98109.97
2022-11-08T10:12:28.522Z,98118.38
2022-11-08T10:17:42.198Z,98109.44
2022-11-08T10:23:05.501Z,98108.28
2022-11-08T10:28:08.301Z,98102.03
2022-11-08T10:33:18.419Z,98102.44
2022-11-08T10:38:24.989Z,98091.81
2022-11-08T10:43:49.930Z,98089.38
2022-11-08T10:48:51.737Z,98087.69
2022-11-08T10:53:53.595Z,98080.31
2022-11-08T10:58:55.451Z,98083.38
2022-11-08T11:03:57.291Z,98079.91
2022-11-08T11:09:03.814Z,98067.47
2022-11-08T11:14:22.249Z,98057.06
2022-11-08T11:19:26.274Z,98051.88
2022-11-08T11:24:28.498Z,98063.09
2022-11-08T11:29:32.714Z,98051.28
2022-11-08T11:34:49.205Z,98046.38
2022-11-08T11:40:12.813Z,98052.59
2022-11-08T11:45:17.953Z,98052.97
2022-11-08T11:50:28.657Z,98050.13
2022-11-08T11:55:49.339Z,98043.38
2022-11-08T12:01:14.833Z,98047.00
2022-11-08T12:06:21.580Z,98041.97
2022-11-08T12:11:36.462Z,98032.66
2022-11-08T12:17:07.481Z,98041.09
2022-11-08T12:22:12.090Z,98019.91
2022-11-08T12:27:31.188Z,98025.50
2022-11-08T12:32:45.568Z,98009.59
2022-11-08T12:38:05.829Z,98011.25
2022-11-08T12:43:23.135Z,98002.69
2022-11-08T12:48:24.896Z,98008.41
2022-11-08T12:53:51.518Z,97990.09
2022-11-08T12:58:55.146Z,98001.69
2022-11-08T13:04:21.648Z,97992.22
2022-11-08T13:09:37.416Z,97992.06
2022-11-08T13:14:41.423Z,97977.88
2022-11-08T13:19:49.788Z,97973.94
2022-11-08T13:24:51.682Z,97974.69
2022-11-08T13:29:56.844Z,97976.69
2022-11-08T13:35:25.616Z,97972.41
2022-11-08T13:40:55.692Z,97971.38
2022-11-08T13:46:31.878Z,97956.41
2022-11-08T13:51:36.748Z,97952.09
2022-11-08T13:56:45.937Z,97941.22
2022-11-08T14:01:47.689Z,97948.50
2022-11-08T14:06:55.185Z,97947.00
2022-11-08T14:12:12.322Z,97952.00
2022-11-08T14:17:26.662Z,97943.19
2022-11-08T14:22:30.374Z,97940.09
2022-11-08T14:27:36.825Z,97926.06
2022-11-08T14:32:40.780Z,97941.13
2022-11-08T14:37:44.042Z,97939.09
2022-11-08T14:42:46.006Z,97952.25
2022-11-08T14:48:00.820Z,97961.28
2022-11-08T14:53:45.008Z,97963.06
2022-11-08T14:58:48.444Z,97954.28
2022-11-08T15:03:55.789Z,97949.88
2022-11-08T15:08:58.176Z,97945.38
2022-11-08T15:14:17.062Z,97953.81
2022-11-08T15:19:30.285Z,97940.69
2022-11-08T15:24:39.981Z,97937.31
2022-11-08T15:30:07.152Z,97947.16
2022-11-08T15:35:23.903Z,97943.25
2022-11-08T15:40:32.043Z,97941.41
2022-11-08T15:45:35.749Z,97952.03
2022-11-08T15:50:37.693Z,97957.56
2022-11-08T15:55:49.047Z,97943.16
2022-11-08T16:00:51.158Z,97934.94
2022-11-08T16:05:53.312Z,97939.63
2022-11-08T16:10:59.818Z,97930.22
2022-11-08T16:16:04.054Z,97935.75
2022-11-08T16:21:06.624Z,97934.97
2022-11-08T16:26:15.374Z,97924.06
2022-11-08T16:31:20.822Z,97915.50
2022-11-08T16:36:25.716Z,97915.53
2022-11-08T16:41:27.755Z,97917.88
2022-11-08T16:46:29.673Z,97912.84
2022-11-08T16:51:31.987Z,97915.59
2022-11-08T16:56:33.898Z,97909.75
2022-11-08T17:01:36.176Z,97915.63
2022-11-08T17:06:38.191Z,97914.84
2022-11-08T17:11:40.911Z,97907.00
2022-11-08T17:16:42.816Z,97918.31
2022-11-08T17:21:45.892Z,97910.13
2022-11-08T17:26:48.198Z,97912.47
2022-11-08T17:31:50.478Z,97914.41
2022-11-08T17:36:53.076Z,97917.13
2022-11-08T17:41:54.973Z,97922.16
2022-11-08T17:46:56.813Z,97916.31
2022-11-08T17:51:58.713Z,97910.88
2022-11-08T17:57:00.676Z,97918.69
2022-11-08T18:02:03.380Z,97916.75
2022-11-08T18:07:05.827Z,97926.09
2022-11-08T18:12:07.850Z,97928.06
2022-11-08T18:17:09.853Z,97925.72
2022-11-08T18:22:11.703Z,97924.56
2022-11-08T18:27:13.645Z,97924.53
2022-11-08T18:32:15.667Z,97919.50
2022-11-08T18:37:17.584Z,97921.81
2022-11-08T18:42:19.425Z,97913.28
2022-11-08T18:47:21.310Z,97908.19
2022-11-08T18:52:23.160Z,97904.28
2022-11-08T18:57:25.114Z,97912.06
2022-11-08T19:02:27.020Z,97903.09
2022-11-08T19:07:29.792Z,97899.97
2022-11-08T19:12:31.777Z,97908.53
2022-11-08T19:17:35.401Z,97901.53
2022-11-08T19:22:37.313Z,97902.28
2022-11-08T19:27:39.241Z,97899.19
2022-11-08T19:32:41.185Z,97903.09
2022-11-08T19:37:43.172Z,97899.97
2022-11-08T19:42:45.077Z,97910.09
2022-11-08T19:47:50.563Z,97913.22
2022-11-08T19:52:52.581Z,97913.22
2022-11-08T19:57:54.564Z,97918.66
2022-11-08T20:02:56.485Z,97906.97
2022-11-08T20:07:58.347Z,97914.75
2022-11-08T20:13:00.253Z,97913.16
2022-11-08T20:18:02.023Z,97924.88
2022-11-08T20:23:04.641Z,97926.84
2022-11-08T20:28:07.079Z,97928.03
2022-11-08T20:33:08.906Z,97919.44
2022-11-08T20:38:10.704Z,97929.22
2022-11-08T20:43:12.541Z,97923.34
2022-11-08T20:48:14.495Z,97929.63
2022-11-08T20:53:16.316Z,97927.69
2022-11-08T20:58:18.402Z,97923.78
2022-11-08T21:03:21.920Z,97926.91
2022-11-08T21:13:47.244Z,97926.50
2022-11-08T21:18:49.159Z,97935.88
2022-11-08T21:23:51.605Z,97929.63
2022-11-08T21:28:54.449Z,97925.72
2022-11-08T21:33:56.317Z,97926.13
2022-11-08T21:38:58.123Z,97926.50
2022-11-08T21:44:00.118Z,97917.13
2022-11-08T21:49:02.406Z,97918.31
2022-11-08T21:54:05.240Z,97911.69
2022-11-08T21:59:07.090Z,97914.00
2022-11-08T22:04:08.879Z,97910.13
2022-11-08T22:09:10.689Z,97910.13
2022-11-08T22:14:12.673Z,97903.09
2022-11-08T22:19:15.554Z,97896.84
2022-11-08T22:24:22.783Z,97889.84
2022-11-08T22:29:25.139Z,97903.50
2022-11-08T22:34:27.426Z,97894.91
2022-11-08T22:39:29.494Z,97894.13
2022-11-08T22:44:31.307Z,97898.03
2022-11-08T22:49:33.120Z,97888.28
2022-11-08T22:54:35.187Z,97896.47
2022-11-08T22:59:36.990Z,97901.94
2022-11-08T23:04:38.820Z,97901.94
2022-11-08T23:09:40.669Z,97898.41
2022-11-08T23:15:00.934Z,97892.19
2022-11-08T23:20:21.515Z,97892.16
2022-11-08T23:25:23.304Z,97895.28
2022-11-08T23:30:43.974Z,97891.38
2022-11-08T23:36:05.736Z,97890.56
2022-11-08T23:41:26.534Z,97893.25
2022-11-08T23:46:28.231Z,97878.84
2022-11-08T23:51:30.420Z,97877.31
2022-11-08T23:56:32.285Z,97874.16
